createdAt,value
2017-08-22T00:01:29.339Z,11.10
2017-08-22T00:03:55.491Z,11.00
2017-08-22T00:06:21.631Z,11.10
2017-08-22T00:08:47.751Z,11.10
2017-08-22T00:11:13.907Z,11.20
2017-08-22T00:13:40.031Z,11.10
2017-08-22T00:16:06.148Z,11.30
2017-08-22T00:18:32.299Z,11.30
2017-08-22T00:20:58.500Z,11.50
2017-08-22T00:23:24.631Z,11.50
2017-08-22T00:25:50.947Z,11.60
2017-08-22T00:28:17.055Z,11.50
2017-08-22T00:30:43.205Z,11.30
2017-08-22T00:33:09.355Z,11.20
2017-08-22T00:35:35.495Z,11.30
2017-08-22T00:38:01.671Z,11.40
2017-08-22T00:40:27.823Z,11.40
2017-08-22T00:42:53.963Z,11.40
2017-08-22T00:45:20.119Z,11.40
2017-08-22T00:47:46.256Z,11.40
2017-08-22T00:50:12.400Z,11.40
2017-08-22T00:52:38.566Z,11.60
2017-08-22T00:55:04.706Z,11.80
2017-08-22T00:57:30.839Z,11.80
2017-08-22T00:59:57.016Z,12.00
2017-08-22T01:02:23.134Z,12.30
2017-08-22T01:04:49.272Z,12.00
2017-08-22T01:07:15.440Z,11.70
2017-08-22T01:09:41.544Z,11.80
2017-08-22T01:12:07.707Z,12.00
2017-08-22T01:14:33.838Z,12.00
2017-08-22T01:16:59.956Z,12.00
2017-08-22T01:19:26.106Z,11.90
2017-08-22T01:21:52.244Z,11.80
2017-08-22T01:24:18.376Z,11.70
2017-08-22T01:26:44.545Z,11.90
2017-08-22T01:29:10.700Z,11.90
2017-08-22T01:31:36.856Z,12.00
2017-08-22T01:34:03.015Z,11.90
2017-08-22T01:36:29.143Z,11.80
2017-08-22T01:38:55.285Z,11.70
2017-08-22T01:41:21.454Z,11.80
2017-08-22T01:43:47.600Z,11.80
2017-08-22T01:46:13.741Z,11.80
2017-08-22T01:48:39.896Z,11.80
2017-08-22T01:51:06.028Z,11.80
2017-08-22T01:53:32.139Z,11.80
2017-08-22T01:55:58.304Z,11.90
2017-08-22T01:58:24.433Z,11.90
2017-08-22T02:00:50.553Z,11.90
2017-08-22T02:03:17.028Z,11.90
2017-08-22T02:05:43.145Z,11.90
2017-08-22T02:08:09.260Z,11.90
2017-08-22T02:10:35.418Z,12.00
2017-08-22T02:13:01.540Z,12.20
2017-08-22T02:15:27.683Z,12.40
2017-08-22T02:17:53.840Z,12.70
2017-08-22T02:20:19.972Z,12.60
2017-08-22T02:22:46.105Z,12.60
2017-08-22T02:25:12.266Z,12.90
2017-08-22T02:27:38.389Z,12.70
2017-08-22T02:30:04.532Z,12.40
2017-08-22T02:32:30.673Z,12.30
2017-08-22T02:34:56.789Z,12.20
2017-08-22T02:37:22.932Z,12.20
2017-08-22T02:39:49.121Z,12.20
2017-08-22T02:42:15.251Z,12.20
2017-08-22T02:44:41.380Z,12.20
2017-08-22T02:47:07.612Z,12.30
2017-08-22T02:49:33.757Z,12.20
2017-08-22T02:51:59.889Z,12.30
2017-08-22T02:54:26.036Z,12.30
2017-08-22T02:56:52.156Z,12.20
2017-08-22T02:59:18.284Z,12.20
2017-08-22T03:01:44.435Z,12.10
2017-08-22T03:04:10.558Z,12.10
2017-08-22T03:06:36.677Z,12.10
2017-08-22T03:09:02.859Z,12.10
2017-08-22T03:11:28.988Z,12.10
2017-08-22T03:13:55.169Z,12.20
2017-08-22T03:16:21.405Z,12.20
2017-08-22T03:18:47.520Z,12.20
2017-08-22T03:21:13.643Z,12.20
2017-08-22T03:23:39.772Z,12.20
2017-08-22T03:26:05.896Z,12.10
2017-08-22T03:28:32.045Z,12.10
2017-08-22T03:30:58.382Z,12.10
2017-08-22T03:33:24.521Z,12.10
2017-08-22T03:35:50.828Z,12.10
2017-08-22T03:38:16.984Z,12.10
2017-08-22T03:40:43.104Z,12.10
2017-08-22T03:43:09.328Z,12.10
2017-08-22T03:45:35.448Z,12.10
2017-08-22T03:48:01.565Z,12.20
2017-08-22T03:50:27.747Z,12.20
2017-08-22T03:52:53.873Z,12.10
2017-08-22T03:55:19.995Z,12.10
2017-08-22T03:57:46.169Z,12.20
2017-08-22T04:00:12.299Z,12.10
2017-08-22T04:02:38.450Z,12.20
2017-08-22T04:05:04.593Z,12.20
2017-08-22T04:07:30.712Z,12.20
2017-08-22T04:09:56.849Z,12.20
2017-08-22T04:12:23.000Z,12.20
2017-08-22T04:14:49.160Z,12.10
2017-08-22T04:17:15.285Z,12.10
2017-08-22T04:19:41.424Z,12.10
2017-08-22T04:22:07.594Z,12.10
2017-08-22T04:24:33.787Z,12.10
2017-08-22T04:26:59.906Z,12.10
2017-08-22T04:29:26.059Z,12.00
2017-08-22T04:31:52.210Z,12.00
2017-08-22T04:34:18.333Z,12.10
2017-08-22T04:36:44.495Z,12.10
2017-08-22T04:39:10.640Z,12.10
2017-08-22T04:41:36.761Z,12.10
2017-08-22T04:44:02.904Z,12.10
2017-08-22T04:46:29.180Z,12.10
2017-08-22T04:48:55.304Z,12.20
2017-08-22T04:51:21.445Z,12.20
2017-08-22T04:53:47.561Z,12.20
2017-08-22T04:56:13.671Z,12.20
2017-08-22T04:58:39.824Z,12.20
2017-08-22T05:01:05.954Z,12.30
2017-08-22T05:03:32.084Z,12.30
2017-08-22T05:05:58.221Z,12.40
2017-08-22T05:08:24.332Z,12.40
2017-08-22T05:10:50.493Z,12.50
2017-08-22T05:13:16.600Z,12.50
2017-08-22T05:15:42.705Z,12.50
2017-08-22T05:18:08.852Z,12.50
2017-08-22T05:20:34.969Z,12.60
2017-08-22T05:23:01.084Z,12.70
2017-08-22T05:25:27.211Z,12.70
2017-08-22T05:27:53.309Z,12.70
2017-08-22T05:30:19.452Z,12.80
2017-08-22T05:32:45.593Z,12.80
2017-08-22T05:35:11.764Z,12.70
2017-08-22T05:37:37.891Z,12.70
2017-08-22T05:40:04.019Z,12.70
2017-08-22T05:42:30.149Z,12.70
2017-08-22T05:44:56.499Z,12.70
2017-08-22T05:47:22.611Z,12.70
2017-08-22T05:49:48.725Z,12.70
2017-08-22T05:52:14.861Z,12.70
2017-08-22T05:54:40.976Z,12.70
2017-08-22T05:57:07.098Z,12.70
2017-08-22T05:59:33.345Z,12.70
2017-08-22T06:01:59.579Z,12.80
2017-08-22T06:04:25.697Z,12.80
2017-08-22T06:06:51.929Z,12.80
2017-08-22T06:09:18.045Z,12.80
2017-08-22T06:11:44.165Z,12.90
2017-08-22T06:14:10.300Z,12.90
2017-08-22T06:16:36.415Z,13.00
2017-08-22T06:19:02.524Z,13.00
2017-08-22T06:21:28.895Z,13.10
2017-08-22T06:23:55.004Z,13.10
2017-08-22T06:26:21.123Z,13.10
2017-08-22T06:28:47.281Z,13.10
2017-08-22T06:31:13.400Z,13.10
2017-08-22T06:33:39.516Z,13.20
2017-08-22T06:36:05.660Z,13.20
2017-08-22T06:38:31.780Z,13.30
2017-08-22T06:40:57.916Z,13.30
2017-08-22T06:43:24.054Z,13.30
2017-08-22T06:45:50.164Z,13.40
2017-08-22T06:48:16.303Z,13.50
2017-08-22T06:50:42.425Z,13.60
2017-08-22T06:53:08.523Z,13.70
2017-08-22T06:55:34.673Z,13.90
2017-08-22T06:58:00.773Z,14.00
2017-08-22T07:00:26.889Z,14.00
2017-08-22T07:02:53.041Z,14.10
2017-08-22T07:05:19.151Z,14.30
2017-08-22T07:07:45.256Z,14.40
2017-08-22T07:10:12.111Z,14.40
2017-08-22T07:12:38.225Z,14.40
2017-08-22T07:15:04.353Z,14.50
2017-08-22T07:17:30.704Z,14.60
2017-08-22T07:19:56.800Z,14.60
2017-08-22T07:22:22.907Z,14.60
2017-08-22T07:24:49.053Z,14.70
2017-08-22T07:27:15.148Z,14.80
2017-08-22T07:29:41.251Z,14.80
2017-08-22T07:32:07.368Z,14.90
2017-08-22T07:34:33.476Z,14.90
2017-08-22T07:36:59.915Z,14.90
2017-08-22T07:39:26.037Z,15.00
2017-08-22T07:41:52.165Z,14.90
2017-08-22T07:44:18.286Z,14.90
2017-08-22T07:46:44.406Z,15.00
2017-08-22T07:49:10.546Z,15.20
2017-08-22T07:51:36.668Z,15.30
2017-08-22T07:54:02.787Z,15.40
2017-08-22T07:56:29.323Z,15.50
2017-08-22T07:58:55.456Z,15.60
2017-08-22T08:01:21.581Z,15.60
2017-08-22T08:03:48.224Z,15.60
2017-08-22T08:06:14.355Z,15.70
2017-08-22T08:08:40.505Z,15.80
2017-08-22T08:11:06.667Z,15.90
2017-08-22T08:13:32.806Z,15.90
2017-08-22T08:15:58.959Z,15.90
2017-08-22T08:18:25.555Z,15.80
2017-08-22T08:20:51.679Z,15.90
2017-08-22T08:23:17.797Z,16.10
2017-08-22T08:25:43.958Z,16.10
2017-08-22T08:28:10.060Z,16.10
2017-08-22T08:30:36.179Z,16.20
2017-08-22T08:33:02.331Z,16.20
2017-08-22T08:35:28.455Z,16.30
2017-08-22T08:37:54.575Z,16.20
2017-08-22T08:40:20.932Z,16.20
2017-08-22T08:42:47.043Z,16.10
2017-08-22T08:45:13.156Z,16.10
2017-08-22T08:47:39.303Z,16.20
2017-08-22T08:50:05.424Z,16.20
2017-08-22T08:52:31.571Z,16.10
2017-08-22T08:54:57.701Z,16.20
2017-08-22T08:57:23.829Z,16.20
2017-08-22T08:59:49.956Z,16.30
2017-08-22T09:02:16.083Z,16.30
2017-08-22T09:04:42.637Z,16.30
2017-08-22T09:07:08.769Z,16.50
2017-08-22T09:09:34.880Z,16.50
2017-08-22T09:12:00.996Z,16.60
2017-08-22T09:14:27.393Z,16.60
2017-08-22T09:16:53.513Z,16.60
2017-08-22T09:19:19.626Z,16.70
2017-08-22T09:21:45.762Z,16.80
2017-08-22T09:24:11.879Z,16.80
2017-08-22T09:26:37.992Z,16.70
2017-08-22T09:29:04.283Z,16.80
2017-08-22T09:31:30.400Z,16.90
2017-08-22T09:33:56.517Z,17.00
2017-08-22T09:36:22.646Z,17.00
2017-08-22T09:38:48.788Z,17.10
2017-08-22T09:41:14.900Z,17.00
2017-08-22T09:43:41.139Z,17.20
2017-08-22T09:46:07.244Z,17.10
2017-08-22T09:48:33.360Z,17.00
2017-08-22T09:50:59.793Z,17.00
2017-08-22T09:53:25.906Z,17.20
2017-08-22T09:55:52.025Z,17.30
2017-08-22T09:58:18.468Z,17.40
2017-08-22T10:00:44.573Z,17.60
2017-08-22T10:03:10.711Z,17.60
2017-08-22T10:05:36.865Z,17.50
2017-08-22T10:08:02.977Z,17.60
2017-08-22T10:10:29.087Z,17.60
2017-08-22T10:12:55.228Z,17.70
2017-08-22T10:15:21.374Z,17.50
2017-08-22T10:17:47.505Z,17.60
2017-08-22T10:20:13.662Z,17.70
2017-08-22T10:22:39.784Z,17.90
2017-08-22T10:25:05.907Z,18.00
2017-08-22T10:27:32.073Z,18.10
2017-08-22T10:29:58.191Z,18.20
2017-08-22T10:32:24.304Z,18.10
2017-08-22T10:34:50.450Z,18.00
2017-08-22T10:37:16.568Z,18.00
2017-08-22T10:39:42.697Z,17.80
2017-08-22T10:42:08.852Z,17.70
2017-08-22T10:44:34.983Z,17.70
2017-08-22T10:47:01.101Z,17.70
2017-08-22T10:49:27.513Z,17.90
2017-08-22T10:51:53.619Z,17.90
2017-08-22T10:54:19.729Z,18.00
2017-08-22T10:56:45.892Z,18.10
2017-08-22T10:59:12.025Z,18.10
2017-08-22T11:01:38.138Z,18.10
2017-08-22T11:04:04.296Z,18.10
2017-08-22T11:06:30.415Z,18.10
2017-08-22T11:08:56.560Z,18.20
2017-08-22T11:11:23.055Z,18.30
2017-08-22T11:13:49.168Z,18.40
2017-08-22T11:16:15.325Z,18.30
2017-08-22T11:18:41.459Z,18.40
2017-08-22T11:21:07.593Z,18.70
2017-08-22T11:23:33.722Z,18.50
2017-08-22T11:26:00.623Z,18.10
2017-08-22T11:28:26.743Z,18.10
2017-08-22T11:30:52.863Z,18.00
2017-08-22T11:33:19.927Z,18.00
2017-08-22T11:35:46.116Z,18.10
2017-08-22T11:38:12.252Z,17.90
2017-08-22T11:40:38.710Z,18.00
2017-08-22T11:43:04.820Z,18.30
2017-08-22T11:45:30.957Z,18.40
2017-08-22T11:47:57.394Z,18.50
2017-08-22T11:50:23.513Z,18.50
2017-08-22T11:52:49.659Z,18.60
2017-08-22T11:55:15.992Z,18.90
2017-08-22T11:57:42.106Z,19.10
2017-08-22T12:00:08.261Z,19.30
2017-08-22T12:02:34.396Z,19.60
2017-08-22T12:05:00.545Z,19.40
2017-08-22T12:07:26.738Z,19.10
2017-08-22T12:09:52.887Z,19.00
2017-08-22T12:12:19.024Z,18.80
2017-08-22T12:14:45.155Z,18.70
2017-08-22T12:17:11.323Z,18.50
2017-08-22T12:19:37.501Z,18.80
2017-08-22T12:22:03.664Z,20.30
2017-08-22T12:24:29.856Z,21.30
2017-08-22T12:26:55.985Z,20.90
2017-08-22T12:29:22.160Z,20.50
2017-08-22T12:31:48.686Z,19.80
2017-08-22T12:34:14.803Z,19.30
2017-08-22T12:36:40.921Z,19.30
2017-08-22T12:39:07.265Z,19.20
2017-08-22T12:41:33.425Z,19.00
2017-08-22T12:43:59.549Z,19.10
2017-08-22T12:46:25.713Z,20.10
2017-08-22T12:48:51.827Z,20.60
2017-08-22T12:51:18.004Z,20.90
2017-08-22T12:53:44.137Z,22.00
2017-08-22T12:56:10.248Z,23.10
2017-08-22T12:58:36.400Z,23.80
2017-08-22T13:01:02.532Z,23.10
2017-08-22T13:03:28.668Z,22.40
2017-08-22T13:05:55.054Z,22.00
2017-08-22T13:08:21.168Z,22.20
2017-08-22T13:10:47.278Z,23.20
2017-08-22T13:13:13.455Z,24.00
2017-08-22T13:15:39.552Z,24.70
2017-08-22T13:18:05.652Z,26.00
2017-08-22T13:20:31.947Z,25.40
2017-08-22T13:22:58.084Z,25.70
2017-08-22T13:25:24.208Z,25.90
2017-08-22T13:27:50.346Z,25.70
2017-08-22T13:30:16.471Z,25.30
2017-08-22T13:32:42.635Z,23.40
2017-08-22T13:35:08.793Z,22.20
2017-08-22T13:37:34.907Z,21.20
2017-08-22T13:40:01.051Z,20.80
2017-08-22T13:42:27.551Z,20.70
2017-08-22T13:44:53.684Z,20.20
2017-08-22T13:47:19.838Z,19.90
2017-08-22T13:49:45.992Z,19.90
2017-08-22T13:52:12.104Z,21.80
2017-08-22T13:54:38.203Z,23.20
2017-08-22T13:57:04.331Z,24.20
2017-08-22T13:59:30.541Z,24.80
2017-08-22T14:01:56.709Z,24.80
2017-08-22T14:04:22.826Z,23.50
2017-08-22T14:06:48.932Z,22.20
2017-08-22T14:09:15.065Z,22.30
2017-08-22T14:11:41.209Z,23.70
2017-08-22T14:14:07.359Z,24.10
2017-08-22T14:16:33.469Z,24.50
2017-08-22T14:18:59.575Z,25.30
2017-08-22T14:21:25.806Z,24.30
2017-08-22T14:23:51.916Z,24.70
2017-08-22T14:26:18.034Z,24.70
2017-08-22T14:28:44.207Z,24.60
2017-08-22T14:31:10.324Z,23.20
2017-08-22T14:33:36.508Z,21.80
2017-08-22T14:36:02.672Z,21.20
2017-08-22T14:38:28.786Z,21.80
2017-08-22T14:40:54.898Z,22.50
2017-08-22T14:43:21.122Z,22.10
2017-08-22T14:45:47.236Z,21.90
2017-08-22T14:48:13.353Z,21.30
2017-08-22T14:50:39.679Z,20.70
2017-08-22T14:53:05.780Z,20.30
2017-08-22T14:55:31.892Z,20.10
2017-08-22T14:57:58.068Z,20.00
2017-08-22T15:00:24.180Z,20.10
2017-08-22T15:02:50.285Z,20.10
2017-08-22T15:05:16.408Z,20.00
2017-08-22T15:07:42.539Z,19.60
2017-08-22T15:10:08.679Z,19.50
2017-08-22T15:12:34.787Z,19.50
2017-08-22T15:15:00.896Z,19.70
2017-08-22T15:17:27.052Z,19.80
2017-08-22T15:19:53.161Z,19.90
2017-08-22T15:22:19.261Z,19.90
2017-08-22T15:24:45.644Z,20.00
2017-08-22T15:27:11.757Z,19.90
2017-08-22T15:29:37.886Z,19.30
2017-08-22T15:32:04.033Z,19.10
2017-08-22T15:34:30.132Z,18.80
2017-08-22T15:36:56.259Z,18.70
2017-08-22T15:39:22.397Z,18.60
2017-08-22T15:41:48.518Z,18.60
2017-08-22T15:44:14.624Z,18.50
2017-08-22T15:46:40.788Z,18.50
2017-08-22T15:49:07.179Z,18.40
2017-08-22T15:51:33.287Z,18.40
2017-08-22T15:53:59.660Z,18.50
2017-08-22T15:56:25.766Z,18.30
2017-08-22T15:58:51.893Z,18.30
2017-08-22T16:01:18.034Z,18.20
2017-08-22T16:03:44.176Z,18.20
2017-08-22T16:06:10.319Z,18.20
2017-08-22T16:08:36.424Z,18.10
2017-08-22T16:11:02.552Z,18.00
2017-08-22T16:13:28.872Z,18.00
2017-08-22T16:15:54.982Z,18.00
2017-08-22T16:18:21.208Z,17.90
2017-08-22T16:20:47.351Z,17.90
2017-08-22T16:23:13.469Z,17.90
2017-08-22T16:25:39.605Z,17.80
2017-08-22T16:28:05.751Z,17.80
2017-08-22T16:30:31.860Z,17.80
2017-08-22T16:32:57.960Z,17.70
2017-08-22T16:35:24.089Z,17.70
2017-08-22T16:37:50.207Z,17.70
2017-08-22T16:40:16.310Z,17.50
2017-08-22T16:42:42.453Z,17.60
2017-08-22T16:45:08.598Z,17.50
2017-08-22T16:47:34.971Z,17.40
2017-08-22T16:50:01.142Z,17.40
2017-08-22T16:52:27.263Z,17.40
2017-08-22T16:54:53.387Z,17.30
2017-08-22T16:57:19.847Z,17.30
2017-08-22T16:59:45.996Z,17.30
2017-08-22T17:02:12.124Z,17.30
2017-08-22T17:04:38.279Z,17.20
2017-08-22T17:07:04.388Z,17.10
2017-08-22T17:09:30.533Z,17.00
2017-08-22T17:11:56.978Z,17.00
2017-08-22T17:14:23.097Z,16.90
2017-08-22T17:16:49.233Z,16.80
2017-08-22T17:19:15.376Z,16.80
2017-08-22T17:21:41.505Z,16.80
2017-08-22T17:24:07.627Z,16.70
2017-08-22T17:26:34.083Z,16.60
2017-08-22T17:29:00.195Z,16.50
2017-08-22T17:31:26.323Z,16.50
2017-08-22T17:33:52.459Z,16.40
2017-08-22T17:36:18.574Z,16.30
2017-08-22T17:38:44.702Z,16.30
2017-08-22T17:41:11.103Z,16.20
2017-08-22T17:43:37.201Z,16.10
2017-08-22T17:46:03.321Z,16.10
2017-08-22T17:48:29.487Z,16.10
2017-08-22T17:50:55.608Z,16.00
2017-08-22T17:53:21.721Z,15.90
2017-08-22T17:55:47.873Z,15.90
2017-08-22T17:58:13.999Z,15.80
2017-08-22T18:00:40.139Z,15.70
2017-08-22T18:03:07.096Z,15.70
2017-08-22T18:05:33.205Z,15.60
2017-08-22T18:07:59.321Z,15.60
2017-08-22T18:10:25.771Z,15.50
2017-08-22T18:12:51.891Z,15.40
2017-08-22T18:15:18.028Z,15.40
2017-08-22T18:17:44.163Z,15.30
2017-08-22T18:20:10.284Z,15.20
2017-08-22T18:22:36.416Z,15.10
2017-08-22T18:25:02.561Z,15.10
2017-08-22T18:27:28.680Z,15.00
2017-08-22T18:29:54.792Z,14.90
2017-08-22T18:32:21.225Z,14.90
2017-08-22T18:34:47.341Z,14.80
2017-08-22T18:37:13.477Z,14.80
2017-08-22T18:39:39.631Z,14.70
2017-08-22T18:42:05.760Z,14.60
2017-08-22T18:44:31.913Z,14.60
2017-08-22T18:46:58.493Z,14.60
2017-08-22T18:49:24.617Z,14.50
2017-08-22T18:51:50.773Z,14.40
2017-08-22T18:54:16.943Z,14.40
2017-08-22T18:56:43.087Z,14.30
2017-08-22T18:59:09.222Z,14.30
2017-08-22T19:01:35.408Z,14.20
2017-08-22T19:04:01.555Z,14.20
2017-08-22T19:06:27.700Z,14.10
2017-08-22T19:08:53.849Z,14.10
2017-08-22T19:11:19.978Z,14.10
2017-08-22T19:13:46.104Z,14.00
2017-08-22T19:16:12.252Z,14.10
2017-08-22T19:18:38.409Z,14.00
2017-08-22T19:21:04.737Z,13.90
2017-08-22T19:23:30.880Z,13.90
2017-08-22T19:25:57.012Z,13.80
2017-08-22T19:28:23.303Z,13.70
2017-08-22T19:30:49.446Z,13.70
2017-08-22T19:33:15.569Z,13.60
2017-08-22T19:35:41.709Z,13.60
2017-08-22T19:38:07.828Z,13.50
2017-08-22T19:40:33.948Z,13.50
2017-08-22T19:43:00.282Z,13.50
2017-08-22T19:45:26.412Z,13.50
2017-08-22T19:47:52.532Z,13.40
2017-08-22T19:50:18.700Z,13.30
2017-08-22T19:52:44.817Z,13.30
2017-08-22T19:55:10.940Z,13.30
2017-08-22T19:57:37.065Z,13.30
2017-08-22T20:00:03.191Z,13.20
2017-08-22T20:02:29.375Z,13.20
2017-08-22T20:04:55.509Z,13.20
2017-08-22T20:07:21.632Z,13.20
2017-08-22T20:09:47.776Z,13.10
2017-08-22T20:12:13.909Z,13.10
2017-08-22T20:14:40.012Z,13.10
2017-08-22T20:17:06.147Z,13.00
2017-08-22T20:19:32.279Z,12.80
2017-08-22T20:21:58.680Z,12.70
2017-08-22T20:24:25.377Z,12.70
2017-08-22T20:26:51.588Z,12.60
2017-08-22T20:29:17.880Z,12.50
2017-08-22T20:31:44.033Z,12.50
2017-08-22T20:34:10.157Z,12.50
2017-08-22T20:36:36.277Z,12.30
2017-08-22T20:39:02.589Z,12.30
2017-08-22T20:41:28.714Z,12.40
2017-08-22T20:43:54.829Z,12.30
2017-08-22T20:46:21.193Z,12.30
2017-08-22T20:48:47.332Z,12.20
2017-08-22T20:51:13.465Z,12.20
2017-08-22T20:53:39.613Z,12.10
2017-08-22T20:56:05.745Z,12.00
2017-08-22T20:58:31.880Z,12.00
2017-08-22T21:00:58.013Z,12.00
2017-08-22T21:03:24.200Z,12.10
2017-08-22T21:05:50.316Z,12.10
2017-08-22T21:08:16.441Z,12.20
2017-08-22T21:10:42.738Z,12.10
2017-08-22T21:13:08.861Z,11.90
2017-08-22T21:15:35.029Z,11.80
2017-08-22T21:18:01.184Z,11.80
2017-08-22T21:20:27.293Z,11.80
2017-08-22T21:22:53.430Z,11.90
2017-08-22T21:25:19.676Z,12.10
2017-08-22T21:27:45.817Z,12.00
2017-08-22T21:30:11.958Z,12.00
2017-08-22T21:32:38.273Z,12.10
2017-08-22T21:35:04.433Z,12.20
2017-08-22T21:37:30.557Z,12.30
2017-08-22T21:39:56.954Z,12.10
2017-08-22T21:42:23.087Z,12.20
2017-08-22T21:44:49.202Z,12.30
2017-08-22T21:47:15.453Z,12.30
2017-08-22T21:49:41.572Z,12.30
2017-08-22T21:52:07.713Z,12.30
2017-08-22T21:54:34.232Z,12.20
2017-08-22T21:57:00.354Z,12.10
2017-08-22T21:59:26.513Z,11.90
2017-08-22T22:01:52.664Z,11.70
2017-08-22T22:04:18.801Z,11.80
2017-08-22T22:06:44.932Z,11.80
2017-08-22T22:09:11.064Z,11.70
2017-08-22T22:11:37.185Z,11.70
2017-08-22T22:14:03.314Z,11.70
2017-08-22T22:16:29.481Z,11.70
2017-08-22T22:18:55.600Z,11.70
2017-08-22T22:21:21.720Z,11.70
2017-08-22T22:23:47.876Z,11.60
2017-08-22T22:26:14.060Z,11.50
2017-08-22T22:28:40.200Z,11.40
2017-08-22T22:31:06.623Z,11.40
2017-08-22T22:33:32.740Z,11.20
2017-08-22T22:35:58.863Z,11.20
2017-08-22T22:38:24.992Z,11.20
2017-08-22T22:40:51.138Z,11.30
2017-08-22T22:43:17.267Z,11.40
2017-08-22T22:45:43.403Z,11.50
2017-08-22T22:48:09.541Z,11.30
2017-08-22T22:50:35.684Z,11.30
2017-08-22T22:53:01.961Z,11.20
2017-08-22T22:55:28.078Z,11.20
2017-08-22T22:57:54.201Z,11.10
2017-08-22T23:00:20.335Z,11.00
2017-08-22T23:02:46.489Z,11.20
2017-08-22T23:05:12.659Z,11.10
2017-08-22T23:07:38.806Z,11.20
2017-08-22T23:10:04.960Z,11.30
2017-08-22T23:12:31.191Z,11.30
2017-08-22T23:14:57.312Z,11.20
2017-08-22T23:17:23.442Z,11.10
2017-08-22T23:19:49.581Z,11.00
2017-08-22T23:22:15.693Z,11.10
2017-08-22T23:24:41.823Z,11.10
2017-08-22T23:27:08.186Z,11.10
2017-08-22T23:29:34.316Z,11.00
2017-08-22T23:32:00.460Z,11.10
2017-08-22T23:34:26.585Z,11.00
2017-08-22T23:36:52.722Z,10.80
2017-08-22T23:39:18.888Z,10.70
2017-08-22T23:41:45.020Z,10.50
2017-08-22T23:44:11.146Z,10.50
2017-08-22T23:46:37.296Z,10.50
2017-08-22T23:49:03.416Z,10.60
2017-08-22T23:51:29.540Z,10.60
2017-08-22T23:53:56.033Z,10.60
2017-08-22T23:56:22.160Z,10.50
2017-08-22T23:58:48.293Z,10.60
